createdAt,value
2023-03-04T00:00:16.629Z,102288.91
2023-03-04T00:02:43.162Z,102300.91
2023-03-04T00:05:09.862Z,102295.72
2023-03-04T00:07:36.776Z,102293.16
2023-03-04T00:10:03.865Z,102288.81
2023-03-04T00:12:30.378Z,102292.28
2023-03-04T00:14:57.073Z,102287.97
2023-03-04T00:17:24.168Z,102289.69
2023-03-04T00:19:50.660Z,102291.38
2023-03-04T00:22:17.187Z,102294.81
2023-03-04T00:24:43.726Z,102292.25
2023-03-04T00:27:10.335Z,102293.97
2023-03-04T00:29:36.996Z,102295.72
2023-03-04T00:32:03.726Z,102297.44
2023-03-04T00:34:32.766Z,102287.16
2023-03-04T00:37:02.218Z,102288.84
2023-03-04T00:39:28.764Z,102284.56
2023-03-04T00:41:55.740Z,102273.38
2023-03-04T00:44:22.253Z,102279.47
2023-03-04T00:46:49.173Z,102275.16
2023-03-04T00:49:15.842Z,102276.91
2023-03-04T00:51:42.367Z,102276.00
2023-03-04T00:54:08.844Z,102273.47
2023-03-04T00:56:35.485Z,102269.19
2023-03-04T00:59:02.156Z,102268.28
2023-03-04T01:01:31.396Z,102266.56
2023-03-04T01:03:57.958Z,102264.84
2023-03-04T01:06:24.526Z,102265.72
2023-03-04T01:08:51.042Z,102263.19
2023-03-04T01:11:17.703Z,102263.13
2023-03-04T01:13:44.302Z,102268.31
2023-03-04T01:16:11.320Z,102263.19
2023-03-04T01:18:38.226Z,102259.75
2023-03-04T01:21:05.487Z,102262.28
2023-03-04T01:23:32.685Z,102254.56
2023-03-04T01:25:59.241Z,102254.59
2023-03-04T01:28:25.793Z,102260.59
2023-03-04T01:30:52.446Z,102249.47
2023-03-04T01:33:19.418Z,102245.13
2023-03-04T01:35:46.222Z,102251.19
2023-03-04T01:38:13.305Z,102252.88
2023-03-04T01:40:40.099Z,102251.19
2023-03-04T01:43:06.685Z,102252.94
2023-03-04T01:45:34.469Z,102247.75
2023-03-04T01:48:01.027Z,102245.16
2023-03-04T01:50:32.539Z,102245.13
2023-03-04T01:52:59.587Z,102249.47
2023-03-04T01:55:30.717Z,102243.50
2023-03-04T01:57:57.665Z,102240.88
2023-03-04T02:00:26.470Z,102244.28
2023-03-04T02:02:58.289Z,102245.16
2023-03-04T02:05:25.074Z,102237.41
2023-03-04T02:07:54.762Z,102236.59
2023-03-04T02:10:21.871Z,102237.50
2023-03-04T02:12:48.921Z,102233.16
2023-03-04T02:15:15.497Z,102235.78
2023-03-04T02:17:42.080Z,102232.34
2023-03-04T02:20:20.796Z,102232.31
2023-03-04T02:23:13.280Z,102234.03
2023-03-04T02:25:48.199Z,102228.88
2023-03-04T02:28:15.095Z,102223.69
2023-03-04T02:30:41.702Z,102227.16
2023-03-04T02:33:16.317Z,102225.44
2023-03-04T02:35:43.112Z,102216.88
2023-03-04T02:38:11.403Z,102220.28
2023-03-04T02:40:40.361Z,102228.06
2023-03-04T02:43:07.313Z,102220.28
2023-03-04T02:45:46.034Z,102219.41
2023-03-04T02:48:14.328Z,102210.84
2023-03-04T02:50:48.307Z,102215.16
2023-03-04T02:53:16.013Z,102209.97
2023-03-04T02:55:43.733Z,102200.53
2023-03-04T02:58:10.918Z,102205.69
2023-03-04T03:00:38.142Z,102203.09
2023-03-04T03:03:05.038Z,102202.25
2023-03-04T03:05:34.763Z,102202.25
2023-03-04T03:08:01.382Z,102204.81
2023-03-04T03:10:28.096Z,102203.09
2023-03-04T03:12:54.637Z,102189.38
2023-03-04T03:15:21.436Z,102190.25
2023-03-04T03:17:48.097Z,102197.97
2023-03-04T03:20:16.088Z,102194.56
2023-03-04T03:22:43.335Z,102186.84
2023-03-04T03:25:12.787Z,102184.22
2023-03-04T03:27:39.586Z,102185.09
2023-03-04T03:30:08.297Z,102186.00
2023-03-04T03:32:34.892Z,102185.13
2023-03-04T03:35:01.506Z,102181.69
2023-03-04T03:37:27.992Z,102179.97
2023-03-04T03:39:54.577Z,102175.69
2023-03-04T03:42:21.115Z,102170.56
2023-03-04T03:44:47.726Z,102179.13
2023-03-04T03:47:14.374Z,102181.69
2023-03-04T03:49:40.912Z,102176.56
2023-03-04T03:52:08.462Z,102179.13
2023-03-04T03:54:35.346Z,102174.84
2023-03-04T03:57:01.914Z,102178.22
2023-03-04T03:59:28.459Z,102191.09
2023-03-04T04:01:55.090Z,102182.53
2023-03-04T04:04:21.756Z,102176.56
2023-03-04T04:06:48.283Z,102173.94
2023-03-04T04:09:14.879Z,102171.38
2023-03-04T04:11:41.472Z,102171.38
2023-03-04T04:14:11.937Z,102172.22
2023-03-04T04:16:38.997Z,102174.81
2023-03-04T04:19:05.579Z,102182.53
2023-03-04T04:21:32.119Z,102168.81
2023-03-04T04:23:58.741Z,102177.38
2023-03-04T04:26:25.269Z,102177.38
2023-03-04T04:28:51.806Z,102174.81
2023-03-04T04:31:18.326Z,102175.66
2023-03-04T04:33:45.039Z,102172.22
2023-03-04T04:36:14.986Z,102173.09
2023-03-04T04:38:41.502Z,102172.22
2023-03-04T04:41:19.771Z,102174.81
2023-03-04T04:43:46.387Z,102173.09
2023-03-04T04:46:12.902Z,102177.38
2023-03-04T04:48:39.416Z,102174.81
2023-03-04T04:51:08.254Z,102182.53
2023-03-04T04:53:34.770Z,102180.81
2023-03-04T04:56:01.435Z,102190.25
2023-03-04T04:58:27.945Z,102186.81
2023-03-04T05:00:57.040Z,102185.06
2023-03-04T05:03:23.759Z,102182.47
2023-03-04T05:05:50.349Z,102187.63
2023-03-04T05:08:17.063Z,102192.78
2023-03-04T05:10:43.531Z,102196.19
2023-03-04T05:13:10.048Z,102194.50
2023-03-04T05:15:38.491Z,102185.91
2023-03-04T05:18:05.039Z,102185.94
2023-03-04T05:20:31.520Z,102195.38
2023-03-04T05:22:58.024Z,102182.53
2023-03-04T05:25:24.499Z,102185.94
2023-03-04T05:27:51.111Z,102181.63
2023-03-04T05:30:17.912Z,102180.81
2023-03-04T05:32:44.442Z,102180.81
2023-03-04T05:35:11.077Z,102179.94
2023-03-04T05:37:37.679Z,102182.53
2023-03-04T05:40:05.374Z,102179.09
2023-03-04T05:42:31.843Z,102183.38
2023-03-04T05:44:58.350Z,102187.66
2023-03-04T05:47:25.403Z,102178.22
2023-03-04T05:49:51.909Z,102183.38
2023-03-04T05:52:18.385Z,102182.53
2023-03-04T05:54:46.374Z,102179.09
2023-03-04T05:57:15.044Z,102188.53
2023-03-04T05:59:41.656Z,102192.00
2023-03-04T06:02:08.527Z,102190.25
2023-03-04T06:04:37.509Z,102187.66
2023-03-04T06:07:04.037Z,102184.22
2023-03-04T06:09:30.585Z,102186.81
2023-03-04T06:11:57.078Z,102193.66
2023-03-04T06:14:23.598Z,102186.81
2023-03-04T06:16:50.161Z,102201.38
2023-03-04T06:19:16.857Z,102192.81
2023-03-04T06:21:43.395Z,102194.50
2023-03-04T06:24:10.092Z,102204.81
2023-03-04T06:26:36.597Z,102202.25
2023-03-04T06:29:04.172Z,102201.38
2023-03-04T06:31:31.531Z,102206.53
2023-03-04T06:33:58.256Z,102199.72
2023-03-04T06:36:24.780Z,102209.97
2023-03-04T06:38:51.308Z,102212.53
2023-03-04T06:41:17.869Z,102217.69
2023-03-04T06:43:44.395Z,102212.53
2023-03-04T06:46:11.377Z,102223.69
2023-03-04T06:48:37.961Z,102222.81
2023-03-04T06:51:11.773Z,102216.81
2023-03-04T06:53:39.542Z,102223.69
2023-03-04T06:56:06.703Z,102222.81
2023-03-04T06:58:36.339Z,102221.97
2023-03-04T07:01:19.720Z,102229.69
2023-03-04T07:03:49.934Z,102227.97
2023-03-04T07:08:59.441Z,102227.13
2023-03-04T07:11:26.664Z,102225.41
2023-03-04T07:13:53.379Z,102227.97
2023-03-04T07:16:22.648Z,102234.84
2023-03-04T07:18:49.745Z,102235.69
2023-03-04T07:21:17.261Z,102241.69
2023-03-04T07:23:47.041Z,102242.59
2023-03-04T07:26:13.779Z,102243.41
2023-03-04T07:28:40.438Z,102245.13
2023-03-04T07:31:20.765Z,102248.56
2023-03-04T07:33:49.597Z,102242.50
2023-03-04T07:36:16.246Z,102247.69
2023-03-04T07:38:48.013Z,102240.84
2023-03-04T07:41:14.907Z,102251.13
2023-03-04T07:43:41.907Z,102242.50
2023-03-04T07:46:09.612Z,102244.25
2023-03-04T07:48:37.210Z,102229.69
2023-03-04T07:51:14.405Z,102239.16
2023-03-04T07:53:43.001Z,102243.50
2023-03-04T07:56:14.062Z,102240.09
2023-03-04T07:58:40.866Z,102249.53
2023-03-04T08:01:16.195Z,102246.97
2023-03-04T08:03:43.116Z,102250.47
2023-03-04T08:06:12.539Z,102254.69
2023-03-04T08:08:39.250Z,102244.44
2023-03-04T08:11:12.610Z,102257.34
2023-03-04T08:13:39.352Z,102243.59
2023-03-04T08:16:06.823Z,102254.75
2023-03-04T08:18:33.754Z,102249.63
2023-03-04T08:21:00.623Z,102249.63
2023-03-04T08:23:27.596Z,102247.94
2023-03-04T08:25:55.662Z,102247.91
2023-03-04T08:28:22.259Z,102250.53
2023-03-04T08:30:53.897Z,102248.81
2023-03-04T08:33:20.601Z,102252.31
2023-03-04T08:35:47.244Z,102254.91
2023-03-04T08:38:13.852Z,102252.34
2023-03-04T08:40:40.750Z,102256.66
2023-03-04T08:43:07.289Z,102254.97
2023-03-04T08:45:33.798Z,102254.09
2023-03-04T08:48:00.340Z,102254.09
2023-03-04T08:50:27.568Z,102248.94
2023-03-04T08:52:54.173Z,102255.78
2023-03-04T08:55:20.910Z,102250.66
2023-03-04T08:57:47.525Z,102250.66
2023-03-04T09:00:14.547Z,102244.66
2023-03-04T09:02:41.139Z,102237.78
2023-03-04T09:05:08.652Z,102250.69
2023-03-04T09:07:35.224Z,102252.41
2023-03-04T09:10:01.831Z,102249.84
2023-03-04T09:12:28.536Z,102248.13
2023-03-04T09:15:09.905Z,102249.03
2023-03-04T09:17:40.622Z,102251.63
2023-03-04T09:20:12.661Z,102243.88
2023-03-04T09:22:40.644Z,102248.19
2023-03-04T09:25:12.689Z,102248.19
2023-03-04T09:27:39.614Z,102245.59
2023-03-04T09:30:07.318Z,102243.00
2023-03-04T09:32:33.884Z,102243.88
2023-03-04T09:35:00.469Z,102244.72
2023-03-04T09:37:27.070Z,102243.00
2023-03-04T09:39:53.654Z,102250.75
2023-03-04T09:42:28.427Z,102245.59
2023-03-04T09:44:55.792Z,102241.31
2023-03-04T09:47:24.921Z,102241.31
2023-03-04T09:50:01.602Z,102244.75
2023-03-04T09:52:43.492Z,102234.41
2023-03-04T09:55:34.232Z,102231.84
2023-03-04T09:58:15.296Z,102231.88
2023-03-04T10:00:59.587Z,102231.00
2023-03-04T10:03:34.491Z,102236.16
2023-03-04T10:06:04.912Z,102229.28
2023-03-04T10:08:49.950Z,102225.00
2023-03-04T10:11:28.086Z,102221.56
2023-03-04T10:14:03.448Z,102218.09
2023-03-04T10:16:39.305Z,102215.53
2023-03-04T10:19:15.074Z,102218.94
2023-03-04T10:21:51.319Z,102212.06
2023-03-04T10:24:25.381Z,102214.69
2023-03-04T10:26:56.621Z,102212.94
2023-03-04T10:29:24.837Z,102213.81
2023-03-04T10:31:51.648Z,102212.94
2023-03-04T10:34:18.905Z,102218.13
2023-03-04T10:36:56.595Z,102214.69
2023-03-04T10:39:26.998Z,102209.50
2023-03-04T10:42:15.561Z,102213.84
2023-03-04T10:44:56.255Z,102213.81
2023-03-04T10:47:30.041Z,102206.06
2023-03-04T10:50:02.173Z,102204.34
2023-03-04T10:52:36.362Z,102218.09
2023-03-04T10:55:06.777Z,102213.84
2023-03-04T10:57:36.683Z,102218.13
2023-03-04T11:00:09.151Z,102207.81
2023-03-04T11:02:36.655Z,102202.63
2023-03-04T11:05:18.206Z,102202.63
2023-03-04T11:08:05.391Z,102198.31
2023-03-04T11:10:43.929Z,102193.16
2023-03-04T11:13:18.775Z,102190.56
2023-03-04T11:15:58.678Z,102186.25
2023-03-04T11:18:50.769Z,102181.94
2023-03-04T11:21:21.036Z,102181.09
2023-03-04T11:23:54.434Z,102174.19
2023-03-04T11:26:45.797Z,102177.56
2023-03-04T11:29:21.565Z,102175.88
2023-03-04T11:32:00.855Z,102175.00
2023-03-04T11:34:27.487Z,102168.97
2023-03-04T11:37:10.258Z,102172.44
2023-03-04T11:40:03.773Z,102163.03
2023-03-04T11:42:38.996Z,102163.06
2023-03-04T11:45:27.891Z,102159.59
2023-03-04T11:48:28.554Z,102158.75
2023-03-04T11:51:13.001Z,102152.75
2023-03-04T11:53:53.931Z,102156.16
2023-03-04T11:56:43.572Z,102153.56
2023-03-04T11:59:16.225Z,102143.25
2023-03-04T12:02:24.869Z,102152.69
2023-03-04T12:05:05.002Z,102146.66
2023-03-04T12:07:43.750Z,102138.88
2023-03-04T12:10:22.638Z,102135.44
2023-03-04T12:13:11.990Z,102119.09
2023-03-04T12:15:46.888Z,102126.78
2023-03-04T12:18:20.540Z,102122.50
2023-03-04T12:21:22.639Z,102120.81
2023-03-04T12:24:10.914Z,102115.66
2023-03-04T12:26:55.117Z,102115.69
2023-03-04T12:29:43.845Z,102120.88
2023-03-04T12:32:32.124Z,102109.66
2023-03-04T12:35:03.612Z,102108.78
2023-03-04T12:37:51.616Z,102105.34
2023-03-04T12:40:36.310Z,102095.03
2023-03-04T12:43:30.856Z,102105.38
2023-03-04T12:46:11.936Z,102102.84
2023-03-04T12:48:44.148Z,102102.88
2023-03-04T12:51:29.040Z,102102.88
2023-03-04T12:54:01.132Z,102098.59
2023-03-04T12:56:54.302Z,102096.84
2023-03-04T12:59:24.139Z,102101.16
2023-03-04T13:02:04.988Z,102095.16
2023-03-04T13:05:10.126Z,102095.19
2023-03-04T13:07:42.984Z,102093.44
2023-03-04T13:10:18.524Z,102092.59
2023-03-04T13:12:59.774Z,102089.13
2023-03-04T13:15:26.362Z,102081.38
2023-03-04T13:18:02.238Z,102080.50
2023-03-04T13:20:40.900Z,102086.50
2023-03-04T13:23:13.532Z,102078.72
2023-03-04T13:25:45.923Z,102071.84
2023-03-04T13:28:19.283Z,102067.59
2023-03-04T13:30:45.868Z,102070.16
2023-03-04T13:33:15.322Z,102067.56
2023-03-04T13:36:02.048Z,102067.50
2023-03-04T13:38:30.936Z,102064.94
2023-03-04T13:41:00.958Z,102061.50
2023-03-04T13:43:40.647Z,102050.34
2023-03-04T13:46:19.687Z,102049.50
2023-03-04T13:48:52.748Z,102045.19
2023-03-04T13:51:41.694Z,102035.63
2023-03-04T13:54:33.316Z,102039.00
2023-03-04T13:57:20.807Z,102027.88
2023-03-04T13:59:55.768Z,102038.22
2023-03-04T14:02:26.081Z,102035.59
2023-03-04T14:05:05.143Z,102029.63
2023-03-04T14:07:37.249Z,102035.63
2023-03-04T14:10:13.201Z,102027.88
2023-03-04T14:12:55.912Z,102034.78
2023-03-04T14:15:30.836Z,102040.81
2023-03-04T14:18:03.398Z,102024.47
2023-03-04T14:20:35.586Z,102022.72
2023-03-04T14:23:04.962Z,102020.94
2023-03-04T14:25:37.052Z,102014.06
2023-03-04T14:28:11.683Z,102013.19
2023-03-04T14:30:43.182Z,102020.06
2023-03-04T14:33:18.189Z,102020.94
2023-03-04T14:35:50.231Z,102012.34
2023-03-04T14:38:22.957Z,102003.75
2023-03-04T14:40:53.727Z,102008.06
2023-03-04T14:43:22.934Z,102002.03
2023-03-04T14:45:58.398Z,102002.88
2023-03-04T14:48:29.851Z,102002.00
2023-03-04T14:50:57.792Z,101992.53
2023-03-04T14:53:27.624Z,101990.00
2023-03-04T14:55:58.602Z,101981.34
2023-03-04T14:58:34.048Z,101981.38
2023-03-04T15:01:20.720Z,101990.91
2023-03-04T15:04:08.030Z,101988.31
2023-03-04T15:06:37.664Z,101990.06
2023-03-04T15:09:18.819Z,101987.56
2023-03-04T15:11:49.924Z,101988.41
2023-03-04T15:14:41.292Z,101998.78
2023-03-04T15:17:29.231Z,101992.75
2023-03-04T15:20:07.757Z,101991.06
2023-03-04T15:22:36.684Z,101989.38
2023-03-04T15:25:03.878Z,101986.81
2023-03-04T15:27:31.350Z,101995.38
2023-03-04T15:30:02.748Z,101989.44
2023-03-04T15:32:30.273Z,101982.53
2023-03-04T15:34:59.030Z,101982.53
2023-03-04T15:37:54.124Z,101979.97
2023-03-04T15:40:28.005Z,101972.25
2023-03-04T15:42:57.476Z,101971.34
2023-03-04T15:45:32.920Z,101977.38
2023-03-04T15:48:00.837Z,101967.91
2023-03-04T15:50:29.232Z,101975.63
2023-03-04T15:53:03.875Z,101979.03
2023-03-04T15:55:32.184Z,101971.31
2023-03-04T15:58:00.635Z,101983.34
2023-03-04T16:00:30.031Z,101973.91
2023-03-04T16:02:57.344Z,101971.31
2023-03-04T16:05:24.038Z,101972.19
2023-03-04T16:07:51.451Z,101977.34
2023-03-04T16:10:22.774Z,101985.09
2023-03-04T16:12:50.065Z,101978.19
2023-03-04T16:15:20.015Z,101973.91
2023-03-04T16:17:47.298Z,101978.19
2023-03-04T16:20:17.221Z,101970.47
2023-03-04T16:22:58.998Z,101967.03
2023-03-04T16:25:29.595Z,101975.63
2023-03-04T16:27:56.657Z,101975.63
2023-03-04T16:30:26.811Z,101973.91
2023-03-04T16:32:53.617Z,101964.47
2023-03-04T16:35:25.341Z,101971.28
2023-03-04T16:37:52.840Z,101963.59
2023-03-04T16:40:28.868Z,101974.78
2023-03-04T16:42:55.500Z,101971.31
2023-03-04T16:45:27.390Z,101966.16
2023-03-04T16:47:54.202Z,101962.72
2023-03-04T16:50:28.449Z,101978.19
2023-03-04T16:52:55.827Z,101977.31
2023-03-04T16:55:26.375Z,101977.34
2023-03-04T16:57:54.353Z,101972.16
2023-03-04T17:00:27.058Z,101972.16
2023-03-04T17:02:57.116Z,101971.31
2023-03-04T17:05:26.422Z,101970.44
2023-03-04T17:07:53.056Z,101970.47
2023-03-04T17:10:20.152Z,101969.56
2023-03-04T17:12:50.089Z,101972.19
2023-03-04T17:15:19.978Z,101973.91
2023-03-04T17:17:50.250Z,101967.88
2023-03-04T17:20:18.566Z,101972.19
2023-03-04T17:22:45.951Z,101972.19
2023-03-04T17:25:15.995Z,101979.03
2023-03-04T17:27:43.182Z,101973.03
2023-03-04T17:30:12.323Z,101979.03
2023-03-04T17:32:40.081Z,101982.50
2023-03-04T17:35:08.607Z,101978.19
2023-03-04T17:37:35.607Z,101985.09
2023-03-04T17:40:08.738Z,101986.84
2023-03-04T17:42:35.315Z,101981.69
2023-03-04T17:45:01.874Z,101991.09
2023-03-04T17:47:28.580Z,101991.13
2023-03-04T17:49:57.831Z,101988.53
2023-03-04T17:52:24.413Z,101993.69
2023-03-04T17:54:50.986Z,101991.97
2023-03-04T17:57:17.650Z,101979.09
2023-03-04T17:59:44.277Z,101979.09
2023-03-04T18:02:15.145Z,101986.84
2023-03-04T18:04:42.723Z,101978.22
2023-03-04T18:07:09.395Z,101977.34
2023-03-04T18:09:35.977Z,101984.25
2023-03-04T18:12:02.543Z,101984.25
2023-03-04T18:14:29.134Z,101979.94
2023-03-04T18:16:55.795Z,101985.09
2023-03-04T18:19:22.347Z,101979.06
2023-03-04T18:21:48.929Z,101984.22
2023-03-04T18:24:17.110Z,101984.25
2023-03-04T18:26:43.882Z,101981.69
2023-03-04T18:29:10.795Z,101975.66
2023-03-04T18:31:37.791Z,101969.66
2023-03-04T18:34:05.133Z,101977.41
2023-03-04T18:36:34.244Z,101974.81
2023-03-04T18:39:21.215Z,101974.84
2023-03-04T18:41:53.208Z,101973.97
2023-03-04T18:44:25.955Z,101974.84
2023-03-04T18:46:59.201Z,101974.84
2023-03-04T18:49:28.596Z,101974.00
2023-03-04T18:51:55.158Z,101978.28
2023-03-04T18:54:22.428Z,101980.84
2023-03-04T18:56:53.920Z,101984.31
2023-03-04T18:59:25.309Z,101977.41
2023-03-04T19:01:53.472Z,101985.19
2023-03-04T19:04:24.179Z,101979.16
2023-03-04T19:06:50.789Z,101988.56
2023-03-04T19:09:17.358Z,101987.72
2023-03-04T19:11:43.943Z,101986.88
2023-03-04T19:14:11.763Z,101989.47
2023-03-04T19:16:39.955Z,101986.88
2023-03-04T19:19:07.866Z,101997.19
2023-03-04T19:21:40.691Z,101988.59
2023-03-04T19:24:07.522Z,101993.75
2023-03-04T19:26:34.302Z,101994.63
2023-03-04T19:29:01.115Z,101998.06
2023-03-04T19:31:27.709Z,101998.91
2023-03-04T19:33:54.250Z,101999.78
2023-03-04T19:36:20.832Z,102004.06
2023-03-04T19:38:47.369Z,101996.31
2023-03-04T19:41:16.828Z,101992.88
2023-03-04T19:43:43.840Z,101997.19
2023-03-04T19:46:10.907Z,101998.91
2023-03-04T19:48:39.081Z,102004.09
2023-03-04T19:51:19.072Z,101992.91
2023-03-04T19:53:46.210Z,101997.22
2023-03-04T19:56:14.595Z,101992.94
2023-03-04T19:58:41.236Z,101988.63
2023-03-04T20:01:20.141Z,102003.28
2023-03-04T20:03:46.660Z,101991.22
2023-03-04T20:06:15.695Z,101995.50
2023-03-04T20:08:42.275Z,101993.81
2023-03-04T20:11:12.673Z,102002.41
2023-03-04T20:13:39.264Z,101992.13
2023-03-04T20:16:11.286Z,101987.84
2023-03-04T20:18:39.039Z,101981.81
2023-03-04T20:21:06.743Z,101978.38
2023-03-04T20:23:34.132Z,101979.28
2023-03-04T20:26:01.044Z,101982.69
2023-03-04T20:28:31.696Z,101990.41
2023-03-04T20:31:19.749Z,101987.00
2023-03-04T20:33:50.436Z,101986.16
2023-03-04T20:36:18.482Z,101995.59
2023-03-04T20:38:45.441Z,101995.59
2023-03-04T20:41:12.334Z,102003.34
2023-03-04T20:43:40.630Z,101992.19
2023-03-04T20:46:27.000Z,101987.88
2023-03-04T20:48:54.927Z,101991.31
2023-03-04T20:51:21.600Z,102001.63
2023-03-04T20:53:49.280Z,101997.34
2023-03-04T20:56:15.908Z,102004.19
2023-03-04T20:58:46.385Z,101992.19
2023-03-04T21:01:13.959Z,101990.47
2023-03-04T21:03:41.274Z,101999.06
2023-03-04T21:06:12.793Z,101998.22
2023-03-04T21:08:42.730Z,101987.03
2023-03-04T21:11:18.505Z,101993.03
2023-03-04T21:13:45.246Z,102004.22
2023-03-04T21:16:18.761Z,101993.94
2023-03-04T21:18:45.350Z,101992.19
2023-03-04T21:21:19.604Z,101993.91
2023-03-04T21:23:46.747Z,101990.50
2023-03-04T21:26:13.284Z,101990.50
2023-03-04T21:28:39.820Z,101993.94
2023-03-04T21:31:10.186Z,101980.19
2023-03-04T21:33:37.056Z,101980.19
2023-03-04T21:36:04.129Z,101980.19
2023-03-04T21:38:30.801Z,101982.78
2023-03-04T21:40:57.451Z,101984.47
2023-03-04T21:43:24.161Z,101988.75
2023-03-04T21:45:58.455Z,101979.34
2023-03-04T21:48:25.779Z,101979.31
2023-03-04T21:50:54.260Z,101973.31
2023-03-04T21:53:23.666Z,101978.47
2023-03-04T21:55:53.164Z,101978.47
2023-03-04T21:58:20.038Z,101987.06
2023-03-04T22:00:46.631Z,101981.03
2023-03-04T22:03:14.300Z,101981.03
2023-03-04T22:05:45.013Z,101971.63
2023-03-04T22:08:16.752Z,101968.16
2023-03-04T22:10:46.654Z,101964.72
2023-03-04T22:13:15.472Z,101964.75
2023-03-04T22:15:44.347Z,101962.16
2023-03-04T22:18:13.454Z,101964.75
2023-03-04T22:20:42.783Z,101963.00
2023-03-04T22:23:10.059Z,101964.75
2023-03-04T22:25:39.468Z,101963.03
2023-03-04T22:28:06.438Z,101959.56
2023-03-04T22:30:35.691Z,101957.88
2023-03-04T22:33:02.476Z,101952.72
2023-03-04T22:35:29.306Z,101949.28
2023-03-04T22:37:55.831Z,101949.28
2023-03-04T22:40:22.537Z,101953.56
2023-03-04T22:42:49.854Z,101955.28
2023-03-04T22:45:18.144Z,101952.72
2023-03-04T22:47:52.086Z,101950.13
2023-03-04T22:50:20.342Z,101949.25
2023-03-04T22:52:47.737Z,101945.84
2023-03-04T22:55:19.846Z,101945.00
2023-03-04T22:57:46.840Z,101933.84
2023-03-04T23:00:18.791Z,101939.88
2023-03-04T23:02:45.561Z,101939.00
2023-03-04T23:05:12.674Z,101932.13
2023-03-04T23:07:39.606Z,101940.69
2023-03-04T23:10:07.766Z,101938.16
2023-03-04T23:12:35.413Z,101939.00
2023-03-04T23:15:02.069Z,101942.44
2023-03-04T23:17:28.839Z,101935.56
2023-03-04T23:19:55.357Z,101942.44
2023-03-04T23:22:21.992Z,101937.28
2023-03-04T23:24:48.494Z,101932.13
2023-03-04T23:27:15.265Z,101938.13
2023-03-04T23:29:41.764Z,101937.28
2023-03-04T23:32:08.571Z,101938.16
2023-03-04T23:34:37.056Z,101931.28
2023-03-04T23:37:03.901Z,101932.13
2023-03-04T23:39:30.596Z,101931.28
2023-03-04T23:41:57.233Z,101937.28
2023-03-04T23:44:23.911Z,101931.28
2023-03-04T23:46:50.487Z,101923.56
2023-03-04T23:49:18.081Z,101933.81
2023-03-04T23:51:45.321Z,101931.25
2023-03-04T23:54:13.246Z,101926.13
2023-03-04T23:56:40.455Z,101925.28
2023-03-04T23:59:08.097Z,101931.25
